sensor_id;sensor_type;location;lat;lon;timestamp;P1;durP1;ratioP1;P2;durP2;ratioP2
12451;SDS011;6291;48.924;12.204;2023-08-08T00:01:35;5.30;;;4.07;;
12451;SDS011;6291;48.924;12.204;2023-08-08T00:06:39;4.40;;;3.20;;
12451;SDS011;6291;48.924;12.204;2023-08-08T00:11:42;3.65;;;2.80;;
12451;SDS011;6291;48.924;12.204;2023-08-08T00:16:48;2.10;;;1.90;;
12451;SDS011;6291;48.924;12.204;2023-08-08T00:21:51;1.85;;;1.70;;
12451;SDS011;6291;48.924;12.204;2023-08-08T00:26:55;2.23;;;1.60;;
12451;SDS011;6291;48.924;12.204;2023-08-08T00:32:00;2.38;;;1.70;;
12451;SDS011;6291;48.924;12.204;2023-08-08T00:37:04;2.70;;;1.50;;
12451;SDS011;6291;48.924;12.204;2023-08-08T00:42:07;1.77;;;1.50;;
12451;SDS011;6291;48.924;12.204;2023-08-08T00:47:13;2.90;;;1.37;;
12451;SDS011;6291;48.924;12.204;2023-08-08T00:52:16;1.90;;;1.40;;
12451;SDS011;6291;48.924;12.204;2023-08-08T00:57:20;1.70;;;1.50;;
12451;SDS011;6291;48.924;12.204;2023-08-08T01:02:27;2.00;;;1.60;;
12451;SDS011;6291;48.924;12.204;2023-08-08T01:07:34;1.50;;;1.30;;
12451;SDS011;6291;48.924;12.204;2023-08-08T01:12:45;2.22;;;1.50;;
12451;SDS011;6291;48.924;12.204;2023-08-08T01:17:52;1.70;;;1.40;;
12451;SDS011;6291;48.924;12.204;2023-08-08T01:22:58;1.65;;;1.35;;
12451;SDS011;6291;48.924;12.204;2023-08-08T01:28:14;1.90;;;1.42;;
12451;SDS011;6291;48.924;12.204;2023-08-08T01:33:18;2.78;;;1.45;;
12451;SDS011;6291;48.924;12.204;2023-08-08T01:38:23;2.92;;;1.50;;
12451;SDS011;6291;48.924;12.204;2023-08-08T01:43:35;1.55;;;1.20;;
12451;SDS011;6291;48.924;12.204;2023-08-08T01:48:44;1.83;;;1.25;;
12451;SDS011;6291;48.924;12.204;2023-08-08T01:53:48;1.80;;;1.20;;
12451;SDS011;6291;48.924;12.204;2023-08-08T01:58:54;1.33;;;1.02;;
12451;SDS011;6291;48.924;12.204;2023-08-08T02:03:58;1.47;;;1.20;;
12451;SDS011;6291;48.924;12.204;2023-08-08T02:09:02;1.77;;;1.17;;
12451;SDS011;6291;48.924;12.204;2023-08-08T02:14:07;1.03;;;0.93;;
12451;SDS011;6291;48.924;12.204;2023-08-08T02:19:11;2.10;;;1.20;;
12451;SDS011;6291;48.924;12.204;2023-08-08T02:24:15;1.30;;;0.90;;
12451;SDS011;6291;48.924;12.204;2023-08-08T02:29:20;1.80;;;1.05;;
12451;SDS011;6291;48.924;12.204;2023-08-08T02:34:23;1.55;;;1.00;;
12451;SDS011;6291;48.924;12.204;2023-08-08T02:39:27;1.38;;;0.90;;
12451;SDS011;6291;48.924;12.204;2023-08-08T02:44:32;1.97;;;1.00;;
12451;SDS011;6291;48.924;12.204;2023-08-08T02:49:36;2.20;;;0.95;;
12451;SDS011;6291;48.924;12.204;2023-08-08T02:54:40;1.50;;;0.82;;
12451;SDS011;6291;48.924;12.204;2023-08-08T02:59:45;1.73;;;0.80;;
12451;SDS011;6291;48.924;12.204;2023-08-08T03:04:49;0.98;;;0.80;;
12451;SDS011;6291;48.924;12.204;2023-08-08T03:09:59;2.15;;;1.00;;
12451;SDS011;6291;48.924;12.204;2023-08-08T03:15:07;1.13;;;0.90;;
12451;SDS011;6291;48.924;12.204;2023-08-08T03:20:13;1.50;;;1.08;;
12451;SDS011;6291;48.924;12.204;2023-08-08T03:25:17;1.60;;;1.00;;
12451;SDS011;6291;48.924;12.204;2023-08-08T03:30:23;2.00;;;1.10;;
12451;SDS011;6291;48.924;12.204;2023-08-08T03:35:26;1.23;;;1.13;;
12451;SDS011;6291;48.924;12.204;2023-08-08T03:40:30;1.90;;;1.00;;
12451;SDS011;6291;48.924;12.204;2023-08-08T03:45:35;1.85;;;1.20;;
12451;SDS011;6291;48.924;12.204;2023-08-08T03:50:39;1.50;;;1.10;;
12451;SDS011;6291;48.924;12.204;2023-08-08T03:55:43;2.38;;;1.00;;
12451;SDS011;6291;48.924;12.204;2023-08-08T04:00:49;1.85;;;1.05;;
12451;SDS011;6291;48.924;12.204;2023-08-08T04:05:53;2.40;;;1.05;;
12451;SDS011;6291;48.924;12.204;2023-08-08T04:10:56;1.48;;;1.10;;
12451;SDS011;6291;48.924;12.204;2023-08-08T04:16:02;2.03;;;1.20;;
12451;SDS011;6291;48.924;12.204;2023-08-08T04:21:07;1.20;;;1.00;;
12451;SDS011;6291;48.924;12.204;2023-08-08T04:26:11;1.38;;;1.20;;
12451;SDS011;6291;48.924;12.204;2023-08-08T04:31:17;3.25;;;1.08;;
12451;SDS011;6291;48.924;12.204;2023-08-08T04:36:21;1.10;;;1.00;;
12451;SDS011;6291;48.924;12.204;2023-08-08T04:41:25;1.73;;;1.00;;
12451;SDS011;6291;48.924;12.204;2023-08-08T04:46:30;1.40;;;1.10;;
12451;SDS011;6291;48.924;12.204;2023-08-08T04:51:33;1.55;;;1.20;;
12451;SDS011;6291;48.924;12.204;2023-08-08T04:56:37;1.10;;;0.90;;
12451;SDS011;6291;48.924;12.204;2023-08-08T05:01:42;1.50;;;1.20;;
12451;SDS011;6291;48.924;12.204;2023-08-08T05:06:45;1.20;;;0.70;;
12451;SDS011;6291;48.924;12.204;2023-08-08T05:11:49;2.40;;;1.05;;
12451;SDS011;6291;48.924;12.204;2023-08-08T05:16:54;2.15;;;1.20;;
12451;SDS011;6291;48.924;12.204;2023-08-08T05:21:58;1.37;;;1.10;;
12451;SDS011;6291;48.924;12.204;2023-08-08T05:27:02;1.90;;;1.10;;
12451;SDS011;6291;48.924;12.204;2023-08-08T05:32:08;1.15;;;1.05;;
12451;SDS011;6291;48.924;12.204;2023-08-08T05:37:11;1.85;;;1.00;;
12451;SDS011;6291;48.924;12.204;2023-08-08T05:42:18;2.58;;;0.88;;
12451;SDS011;6291;48.924;12.204;2023-08-08T05:47:23;1.63;;;0.80;;
12451;SDS011;6291;48.924;12.204;2023-08-08T05:52:27;2.17;;;1.10;;
12451;SDS011;6291;48.924;12.204;2023-08-08T05:57:33;2.15;;;0.80;;
12451;SDS011;6291;48.924;12.204;2023-08-08T06:02:38;1.00;;;0.90;;
12451;SDS011;6291;48.924;12.204;2023-08-08T06:07:42;1.10;;;0.88;;
12451;SDS011;6291;48.924;12.204;2023-08-08T06:12:46;1.50;;;1.00;;
12451;SDS011;6291;48.924;12.204;2023-08-08T06:17:51;1.73;;;0.80;;
12451;SDS011;6291;48.924;12.204;2023-08-08T06:22:54;2.10;;;1.00;;
12451;SDS011;6291;48.924;12.204;2023-08-08T06:27:58;1.60;;;0.90;;
12451;SDS011;6291;48.924;12.204;2023-08-08T06:33:03;1.15;;;0.90;;
12451;SDS011;6291;48.924;12.204;2023-08-08T06:38:07;1.35;;;0.90;;
12451;SDS011;6291;48.924;12.204;2023-08-08T06:43:11;1.10;;;0.77;;
12451;SDS011;6291;48.924;12.204;2023-08-08T06:48:16;1.30;;;0.80;;
12451;SDS011;6291;48.924;12.204;2023-08-08T06:53:20;0.80;;;0.80;;
12451;SDS011;6291;48.924;12.204;2023-08-08T06:58:23;1.88;;;0.73;;
12451;SDS011;6291;48.924;12.204;2023-08-08T07:03:29;1.08;;;0.60;;
12451;SDS011;6291;48.924;12.204;2023-08-08T07:08:32;1.00;;;0.80;;
12451;SDS011;6291;48.924;12.204;2023-08-08T07:13:36;2.70;;;0.85;;
12451;SDS011;6291;48.924;12.204;2023-08-08T07:18:41;1.33;;;0.73;;
12451;SDS011;6291;48.924;12.204;2023-08-08T07:23:44;0.73;;;0.73;;
12451;SDS011;6291;48.924;12.204;2023-08-08T07:28:48;2.15;;;0.98;;
12451;SDS011;6291;48.924;12.204;2023-08-08T07:33:53;2.90;;;0.70;;
12451;SDS011;6291;48.924;12.204;2023-08-08T07:38:57;2.20;;;0.90;;
12451;SDS011;6291;48.924;12.204;2023-08-08T07:44:01;0.98;;;0.70;;
12451;SDS011;6291;48.924;12.204;2023-08-08T07:49:07;1.45;;;0.80;;
12451;SDS011;6291;48.924;12.204;2023-08-08T07:54:11;0.80;;;0.50;;
12451;SDS011;6291;48.924;12.204;2023-08-08T07:59:14;1.37;;;0.77;;
12451;SDS011;6291;48.924;12.204;2023-08-08T08:04:20;1.33;;;0.60;;
12451;SDS011;6291;48.924;12.204;2023-08-08T08:09:23;0.90;;;0.70;;
12451;SDS011;6291;48.924;12.204;2023-08-08T08:14:27;1.45;;;0.90;;
12451;SDS011;6291;48.924;12.204;2023-08-08T08:19:32;1.87;;;0.80;;
12451;SDS011;6291;48.924;12.204;2023-08-08T08:24:36;1.70;;;0.90;;
12451;SDS011;6291;48.924;12.204;2023-08-08T08:29:39;1.38;;;0.80;;
12451;SDS011;6291;48.924;12.204;2023-08-08T08:34:44;4.03;;;1.10;;
12451;SDS011;6291;48.924;12.204;2023-08-08T08:39:48;1.00;;;0.90;;
12451;SDS011;6291;48.924;12.204;2023-08-08T08:44:51;1.67;;;0.98;;
12451;SDS011;6291;48.924;12.204;2023-08-08T08:50:01;1.88;;;1.00;;
12451;SDS011;6291;48.924;12.204;2023-08-08T08:55:05;3.10;;;0.80;;
12451;SDS011;6291;48.924;12.204;2023-08-08T09:00:11;1.20;;;0.82;;
12451;SDS011;6291;48.924;12.204;2023-08-08T09:05:19;1.83;;;0.80;;
12451;SDS011;6291;48.924;12.204;2023-08-08T09:10:24;1.63;;;0.80;;
12451;SDS011;6291;48.924;12.204;2023-08-08T09:15:29;1.10;;;0.90;;
12451;SDS011;6291;48.924;12.204;2023-08-08T09:20:35;0.90;;;0.68;;
12451;SDS011;6291;48.924;12.204;2023-08-08T09:25:38;1.40;;;0.80;;
12451;SDS011;6291;48.924;12.204;2023-08-08T09:30:42;1.00;;;0.70;;
12451;SDS011;6291;48.924;12.204;2023-08-08T09:35:48;1.60;;;0.90;;
12451;SDS011;6291;48.924;12.204;2023-08-08T09:40:51;2.38;;;0.80;;
12451;SDS011;6291;48.924;12.204;2023-08-08T09:45:55;1.45;;;0.70;;
12451;SDS011;6291;48.924;12.204;2023-08-08T09:51:00;4.03;;;0.98;;
12451;SDS011;6291;48.924;12.204;2023-08-08T09:56:06;1.10;;;0.63;;
12451;SDS011;6291;48.924;12.204;2023-08-08T10:01:12;0.98;;;0.77;;
12451;SDS011;6291;48.924;12.204;2023-08-08T10:06:19;1.77;;;0.90;;
12451;SDS011;6291;48.924;12.204;2023-08-08T10:11:22;0.85;;;0.60;;
12451;SDS011;6291;48.924;12.204;2023-08-08T10:16:27;1.30;;;0.60;;
12451;SDS011;6291;48.924;12.204;2023-08-08T10:21:36;1.10;;;0.73;;
12451;SDS011;6291;48.924;12.204;2023-08-08T10:26:52;1.50;;;0.70;;
12451;SDS011;6291;48.924;12.204;2023-08-08T10:31:58;1.00;;;0.60;;
12451;SDS011;6291;48.924;12.204;2023-08-08T10:37:05;1.30;;;0.70;;
12451;SDS011;6291;48.924;12.204;2023-08-08T10:42:17;2.40;;;1.05;;
12451;SDS011;6291;48.924;12.204;2023-08-08T10:47:22;1.57;;;0.50;;
12451;SDS011;6291;48.924;12.204;2023-08-08T10:52:27;0.90;;;0.80;;
12451;SDS011;6291;48.924;12.204;2023-08-08T10:57:31;0.95;;;0.85;;
12451;SDS011;6291;48.924;12.204;2023-08-08T11:02:35;3.08;;;0.80;;
12451;SDS011;6291;48.924;12.204;2023-08-08T11:07:40;1.75;;;0.82;;
12451;SDS011;6291;48.924;12.204;2023-08-08T11:12:58;1.42;;;0.73;;
12451;SDS011;6291;48.924;12.204;2023-08-08T11:18:03;1.40;;;0.80;;
12451;SDS011;6291;48.924;12.204;2023-08-08T11:23:09;1.25;;;0.80;;
12451;SDS011;6291;48.924;12.204;2023-08-08T11:28:14;1.67;;;0.90;;
12451;SDS011;6291;48.924;12.204;2023-08-08T11:33:17;1.65;;;0.90;;
12451;SDS011;6291;48.924;12.204;2023-08-08T11:38:22;1.17;;;0.80;;
12451;SDS011;6291;48.924;12.204;2023-08-08T11:43:26;1.20;;;0.88;;
12451;SDS011;6291;48.924;12.204;2023-08-08T11:48:32;1.33;;;0.90;;
12451;SDS011;6291;48.924;12.204;2023-08-08T11:53:47;1.73;;;0.95;;
12451;SDS011;6291;48.924;12.204;2023-08-08T11:58:52;2.20;;;1.05;;
12451;SDS011;6291;48.924;12.204;2023-08-08T12:03:58;2.30;;;1.00;;
12451;SDS011;6291;48.924;12.204;2023-08-08T12:09:10;1.40;;;0.90;;
12451;SDS011;6291;48.924;12.204;2023-08-08T12:14:14;3.42;;;1.00;;
12451;SDS011;6291;48.924;12.204;2023-08-08T12:19:22;2.10;;;0.90;;
12451;SDS011;6291;48.924;12.204;2023-08-08T12:24:27;1.98;;;1.10;;
12451;SDS011;6291;48.924;12.204;2023-08-08T12:29:31;2.63;;;1.03;;
12451;SDS011;6291;48.924;12.204;2023-08-08T12:34:34;1.27;;;1.00;;
12451;SDS011;6291;48.924;12.204;2023-08-08T12:39:39;3.27;;;1.10;;
12451;SDS011;6291;48.924;12.204;2023-08-08T12:44:43;1.90;;;0.90;;
12451;SDS011;6291;48.924;12.204;2023-08-08T12:49:48;1.85;;;1.05;;
12451;SDS011;6291;48.924;12.204;2023-08-08T12:54:53;1.08;;;0.93;;
12451;SDS011;6291;48.924;12.204;2023-08-08T12:59:56;2.10;;;1.00;;
12451;SDS011;6291;48.924;12.204;2023-08-08T13:05:00;2.07;;;1.00;;
12451;SDS011;6291;48.924;12.204;2023-08-08T13:10:07;1.42;;;0.70;;
12451;SDS011;6291;48.924;12.204;2023-08-08T13:15:11;2.35;;;1.00;;
12451;SDS011;6291;48.924;12.204;2023-08-08T13:20:15;2.60;;;1.00;;
12451;SDS011;6291;48.924;12.204;2023-08-08T13:25:20;1.80;;;1.00;;
12451;SDS011;6291;48.924;12.204;2023-08-08T13:30:23;2.40;;;0.90;;
12451;SDS011;6291;48.924;12.204;2023-08-08T13:35:27;2.13;;;1.00;;
12451;SDS011;6291;48.924;12.204;2023-08-08T13:40:33;1.02;;;0.80;;
12451;SDS011;6291;48.924;12.204;2023-08-08T13:45:36;1.45;;;1.30;;
12451;SDS011;6291;48.924;12.204;2023-08-08T13:50:41;0.70;;;0.50;;
12451;SDS011;6291;48.924;12.204;2023-08-08T13:55:45;1.30;;;0.90;;
12451;SDS011;6291;48.924;12.204;2023-08-08T14:00:49;2.03;;;0.83;;
12451;SDS011;6291;48.924;12.204;2023-08-08T14:05:52;1.20;;;0.87;;
12451;SDS011;6291;48.924;12.204;2023-08-08T14:10:57;0.93;;;0.80;;
12451;SDS011;6291;48.924;12.204;2023-08-08T14:16:01;1.50;;;0.87;;
12451;SDS011;6291;48.924;12.204;2023-08-08T14:21:04;2.20;;;1.00;;
12451;SDS011;6291;48.924;12.204;2023-08-08T14:26:10;1.90;;;1.48;;
12451;SDS011;6291;48.924;12.204;2023-08-08T14:31:13;2.60;;;1.40;;
12451;SDS011;6291;48.924;12.204;2023-08-08T14:36:17;1.57;;;0.90;;
12451;SDS011;6291;48.924;12.204;2023-08-08T14:41:22;1.80;;;1.10;;
12451;SDS011;6291;48.924;12.204;2023-08-08T14:46:25;1.73;;;1.00;;
12451;SDS011;6291;48.924;12.204;2023-08-08T14:51:29;1.87;;;0.90;;
12451;SDS011;6291;48.924;12.204;2023-08-08T14:56:34;1.60;;;0.80;;
12451;SDS011;6291;48.924;12.204;2023-08-08T15:01:38;1.90;;;0.97;;
12451;SDS011;6291;48.924;12.204;2023-08-08T15:06:41;1.40;;;0.90;;
12451;SDS011;6291;48.924;12.204;2023-08-08T15:11:46;1.45;;;0.90;;
12451;SDS011;6291;48.924;12.204;2023-08-08T15:16:50;1.65;;;0.90;;
12451;SDS011;6291;48.924;12.204;2023-08-08T15:21:55;1.80;;;0.95;;
12451;SDS011;6291;48.924;12.204;2023-08-08T15:26:59;1.20;;;0.85;;
12451;SDS011;6291;48.924;12.204;2023-08-08T15:32:03;1.25;;;0.90;;
12451;SDS011;6291;48.924;12.204;2023-08-08T15:37:07;1.50;;;0.80;;
12451;SDS011;6291;48.924;12.204;2023-08-08T15:42:14;1.30;;;0.90;;
12451;SDS011;6291;48.924;12.204;2023-08-08T15:47:18;2.50;;;1.10;;
12451;SDS011;6291;48.924;12.204;2023-08-08T15:52:21;1.40;;;0.90;;
12451;SDS011;6291;48.924;12.204;2023-08-08T15:57:26;1.92;;;1.00;;
12451;SDS011;6291;48.924;12.204;2023-08-08T16:02:29;1.20;;;0.80;;
12451;SDS011;6291;48.924;12.204;2023-08-08T16:07:33;1.60;;;0.80;;
12451;SDS011;6291;48.924;12.204;2023-08-08T16:12:39;1.27;;;0.90;;
12451;SDS011;6291;48.924;12.204;2023-08-08T16:17:42;1.52;;;0.80;;
12451;SDS011;6291;48.924;12.204;2023-08-08T16:22:46;2.55;;;0.90;;
12451;SDS011;6291;48.924;12.204;2023-08-08T16:27:52;1.40;;;0.80;;
12451;SDS011;6291;48.924;12.204;2023-08-08T16:32:56;1.47;;;0.77;;
12451;SDS011;6291;48.924;12.204;2023-08-08T16:37:59;2.70;;;1.52;;
12451;SDS011;6291;48.924;12.204;2023-08-08T16:43:04;2.90;;;1.90;;
12451;SDS011;6291;48.924;12.204;2023-08-08T16:48:07;1.98;;;1.40;;
12451;SDS011;6291;48.924;12.204;2023-08-08T16:53:11;1.10;;;0.87;;
12451;SDS011;6291;48.924;12.204;2023-08-08T16:58:16;1.30;;;0.80;;
12451;SDS011;6291;48.924;12.204;2023-08-08T17:03:20;1.30;;;0.93;;
12451;SDS011;6291;48.924;12.204;2023-08-08T17:08:23;1.45;;;0.88;;
12451;SDS011;6291;48.924;12.204;2023-08-08T17:13:28;1.35;;;1.13;;
12451;SDS011;6291;48.924;12.204;2023-08-08T17:18:32;2.70;;;1.17;;
12451;SDS011;6291;48.924;12.204;2023-08-08T17:23:35;3.15;;;1.02;;
12451;SDS011;6291;48.924;12.204;2023-08-08T17:28:40;2.17;;;1.00;;
12451;SDS011;6291;48.924;12.204;2023-08-08T17:33:44;0.80;;;0.60;;
12451;SDS011;6291;48.924;12.204;2023-08-08T17:38:48;1.30;;;0.83;;
12451;SDS011;6291;48.924;12.204;2023-08-08T17:43:54;1.90;;;0.90;;
12451;SDS011;6291;48.924;12.204;2023-08-08T17:48:58;1.20;;;0.93;;
12451;SDS011;6291;48.924;12.204;2023-08-08T17:54:03;1.47;;;0.60;;
12451;SDS011;6291;48.924;12.204;2023-08-08T17:59:12;1.20;;;0.87;;
12451;SDS011;6291;48.924;12.204;2023-08-08T18:04:16;1.70;;;0.77;;
12451;SDS011;6291;48.924;12.204;2023-08-08T18:09:20;1.75;;;0.80;;
12451;SDS011;6291;48.924;12.204;2023-08-08T18:14:25;1.50;;;0.90;;
12451;SDS011;6291;48.924;12.204;2023-08-08T18:19:30;1.07;;;0.80;;
12451;SDS011;6291;48.924;12.204;2023-08-08T18:24:34;1.50;;;0.73;;
12451;SDS011;6291;48.924;12.204;2023-08-08T18:29:40;2.10;;;0.80;;
12451;SDS011;6291;48.924;12.204;2023-08-08T18:34:44;2.53;;;1.00;;
12451;SDS011;6291;48.924;12.204;2023-08-08T18:39:48;5.47;;;4.40;;
12451;SDS011;6291;48.924;12.204;2023-08-08T18:44:53;3.00;;;2.20;;
12451;SDS011;6291;48.924;12.204;2023-08-08T18:49:56;2.30;;;1.80;;
12451;SDS011;6291;48.924;12.204;2023-08-08T18:55:01;1.60;;;1.00;;
12451;SDS011;6291;48.924;12.204;2023-08-08T19:00:07;1.63;;;1.00;;
12451;SDS011;6291;48.924;12.204;2023-08-08T19:05:11;1.30;;;0.82;;
12451;SDS011;6291;48.924;12.204;2023-08-08T19:10:16;4.65;;;2.70;;
12451;SDS011;6291;48.924;12.204;2023-08-08T19:15:23;2.40;;;1.30;;
12451;SDS011;6291;48.924;12.204;2023-08-08T19:20:28;2.20;;;1.10;;
12451;SDS011;6291;48.924;12.204;2023-08-08T19:25:33;2.15;;;1.10;;
12451;SDS011;6291;48.924;12.204;2023-08-08T19:30:40;1.23;;;0.90;;
12451;SDS011;6291;48.924;12.204;2023-08-08T19:35:45;1.10;;;0.80;;
12451;SDS011;6291;48.924;12.204;2023-08-08T19:40:50;2.05;;;0.80;;
12451;SDS011;6291;48.924;12.204;2023-08-08T19:45:57;1.70;;;0.87;;
12451;SDS011;6291;48.924;12.204;2023-08-08T19:51:02;1.27;;;0.90;;
12451;SDS011;6291;48.924;12.204;2023-08-08T19:56:12;2.30;;;0.95;;
12451;SDS011;6291;48.924;12.204;2023-08-08T20:01:22;1.20;;;0.90;;
12451;SDS011;6291;48.924;12.204;2023-08-08T20:06:27;1.53;;;0.80;;
12451;SDS011;6291;48.924;12.204;2023-08-08T20:11:32;1.98;;;0.80;;
12451;SDS011;6291;48.924;12.204;2023-08-08T20:16:44;1.97;;;0.93;;
12451;SDS011;6291;48.924;12.204;2023-08-08T20:21:52;1.77;;;1.00;;
12451;SDS011;6291;48.924;12.204;2023-08-08T20:26:58;1.40;;;1.05;;
12451;SDS011;6291;48.924;12.204;2023-08-08T20:32:03;1.63;;;0.90;;
12451;SDS011;6291;48.924;12.204;2023-08-08T20:37:08;1.92;;;1.02;;
12451;SDS011;6291;48.924;12.204;2023-08-08T20:42:15;1.83;;;0.90;;
12451;SDS011;6291;48.924;12.204;2023-08-08T20:47:23;1.52;;;1.00;;
12451;SDS011;6291;48.924;12.204;2023-08-08T20:52:27;3.00;;;1.40;;
12451;SDS011;6291;48.924;12.204;2023-08-08T20:57:31;2.67;;;1.15;;
12451;SDS011;6291;48.924;12.204;2023-08-08T21:02:38;1.55;;;1.10;;
12451;SDS011;6291;48.924;12.204;2023-08-08T21:07:43;1.67;;;1.07;;
12451;SDS011;6291;48.924;12.204;2023-08-08T21:12:47;3.40;;;1.27;;
12451;SDS011;6291;48.924;12.204;2023-08-08T21:17:52;2.83;;;1.40;;
12451;SDS011;6291;48.924;12.204;2023-08-08T21:22:56;2.40;;;1.10;;
12451;SDS011;6291;48.924;12.204;2023-08-08T21:28:01;2.10;;;1.05;;
12451;SDS011;6291;48.924;12.204;2023-08-08T21:33:08;1.70;;;1.10;;
12451;SDS011;6291;48.924;12.204;2023-08-08T21:38:13;1.60;;;1.10;;
12451;SDS011;6291;48.924;12.204;2023-08-08T21:43:18;1.50;;;1.20;;
12451;SDS011;6291;48.924;12.204;2023-08-08T21:48:24;2.07;;;1.20;;
12451;SDS011;6291;48.924;12.204;2023-08-08T21:53:28;1.80;;;1.20;;
12451;SDS011;6291;48.924;12.204;2023-08-08T21:58:32;2.58;;;1.40;;
12451;SDS011;6291;48.924;12.204;2023-08-08T22:03:39;3.35;;;1.10;;
12451;SDS011;6291;48.924;12.204;2023-08-08T22:08:46;2.93;;;1.00;;
12451;SDS011;6291;48.924;12.204;2023-08-08T22:13:51;2.03;;;1.23;;
12451;SDS011;6291;48.924;12.204;2023-08-08T22:18:57;2.00;;;1.15;;
12451;SDS011;6291;48.924;12.204;2023-08-08T22:24:05;3.27;;;1.43;;
12451;SDS011;6291;48.924;12.204;2023-08-08T22:29:26;1.75;;;1.10;;
12451;SDS011;6291;48.924;12.204;2023-08-08T22:34:32;1.33;;;1.00;;
12451;SDS011;6291;48.924;12.204;2023-08-08T22:39:38;2.07;;;1.30;;
12451;SDS011;6291;48.924;12.204;2023-08-08T22:44:42;3.70;;;1.30;;
12451;SDS011;6291;48.924;12.204;2023-08-08T22:49:48;2.17;;;1.23;;
12451;SDS011;6291;48.924;12.204;2023-08-08T22:54:55;2.60;;;1.50;;
12451;SDS011;6291;48.924;12.204;2023-08-08T22:59:59;1.30;;;1.20;;
12451;SDS011;6291;48.924;12.204;2023-08-08T23:05:05;2.55;;;1.15;;
12451;SDS011;6291;48.924;12.204;2023-08-08T23:10:09;2.38;;;1.38;;
12451;SDS011;6291;48.924;12.204;2023-08-08T23:15:13;1.80;;;1.25;;
12451;SDS011;6291;48.924;12.204;2023-08-08T23:20:18;1.80;;;1.20;;
12451;SDS011;6291;48.924;12.204;2023-08-08T23:25:21;2.30;;;1.20;;
12451;SDS011;6291;48.924;12.204;2023-08-08T23:30:26;3.78;;;1.20;;
12451;SDS011;6291;48.924;12.204;2023-08-08T23:35:32;2.90;;;1.23;;
12451;SDS011;6291;48.924;12.204;2023-08-08T23:40:35;1.67;;;1.20;;
12451;SDS011;6291;48.924;12.204;2023-08-08T23:45:39;2.50;;;1.20;;
12451;SDS011;6291;48.924;12.204;2023-08-08T23:50:44;2.55;;;1.40;;
12451;SDS011;6291;48.924;12.204;2023-08-08T23:55:47;1.70;;;1.10;;
